Portada
METAR-TAF:

METAR-TAF

Aeroports :

Mitchell Municipal Airport

Mitchell, Dakota del Sud, Estats Units d'Amèrica

latitud: 43-46N, longitud: 098-02W, altitud: 397 m

Observació

L'informe es va fer fa 14 minuts, a les 07:12 UTC
Vent calma
Temperatura 17°C
Humitat 100%
Pressió 1018 hPa
Visibilitat: 2.8 km
Cel clar
boirina

METAR: KMHE 200712Z AUTO 00000KT 1 3/4SM BR CLR 17/17 A3006 RMK AO2 T01720167

Hora: 02:26 (07:26 UTC)


TAF: manca

Observacions i pronòstics meteorològics de més de 4000 aeroports (METAR i TAF).

Les estacions disponibles són els punts grocs i vermells al mapa.

Posi el ratolí al punt desitjat per veure el nom de l'estació.

Feu clic per veure les observacions i els pronòstics meteorològics.

Per canviar el mapa: feu clic els botons verds amb una creu de color negre per apropar; al botó verd amb un guió per allunyar la imatge; o en les fletxes verdes per a mapes adjacents.


METAR-TAF: